Time;durP1;ratioP1;P1;durP2;ratioP2;P2;SDS_P1;SDS_P2;PMS_P1;PMS_P2;Temp;Humidity;BMP_temperature;BMP_pressure;BME280_temperature;BME280_humidity;BME280_pressure;Samples;Min_cycle;Max_cycle;Signal;HPM_P1;HPM_P2
2022/03/24 00:02:03;;;;;;;41.20;17.98;;;;;;;;;;4992530;28;20037;-76
2022/03/24 00:04:29;;;;;;;36.95;17.88;;;;;;;;;;5008409;28;20041;-76
2022/03/24 00:06:55;;;;;;;35.47;16.80;;;;;;;;;;5026256;28;20573;-76
2022/03/24 00:09:21;;;;;;;36.85;19.27;;;;;;;;;;4992954;28;20383;-75
2022/03/24 00:11:47;;;;;;;42.80;19.48;;;;;;;;;;5026087;28;20053;-75
2022/03/24 00:14:14;;;;;;;38.67;19.05;;;;;;;;;;5026523;28;20069;-75
2022/03/24 00:16:40;;;;;;;39.40;20.20;;;;;;;;;;5008370;28;20038;-75
2022/03/24 00:19:07;;;;;;;31.95;17.40;;;;;;;;;;4992594;28;20048;-76
2022/03/24 00:21:33;;;;;;;37.58;19.08;;;;;;;;;;5026176;28;20060;-76
2022/03/24 00:23:59;;;;;;;36.05;18.67;;;;;;;;;;4992537;28;20209;-76
2022/03/24 00:26:25;;;;;;;41.33;19.30;;;;;;;;;;5008559;28;20046;-76
2022/03/24 00:28:52;;;;;;;35.28;18.13;;;;;;;;;;5008210;28;20041;-76
2022/03/24 00:31:18;;;;;;;33.80;18.20;;;;;;;;;;5026036;28;20088;-76
2022/03/24 00:33:44;;;;;;;37.28;17.45;;;;;;;;;;5008549;28;20053;-77
2022/03/24 00:36:10;;;;;;;33.92;18.02;;;;;;;;;;5009985;28;20049;-76
2022/03/24 00:38:37;;;;;;;38.63;16.80;;;;;;;;;;4994889;28;20034;-77
2022/03/24 00:41:03;;;;;;;33.47;17.10;;;;;;;;;;5029650;28;20052;-77
2022/03/24 00:43:30;;;;;;;30.05;16.05;;;;;;;;;;5011292;28;20045;-77
2022/03/24 00:45:57;;;;;;;33.15;17.88;;;;;;;;;;5011704;28;20076;-77
2022/03/24 00:48:24;;;;;;;42.25;20.25;;;;;;;;;;5011823;28;20045;-77
2022/03/24 00:50:50;;;;;;;33.75;18.00;;;;;;;;;;4994923;28;20072;-76
2022/03/24 00:53:18;;;;;;;36.22;17.55;;;;;;;;;;5011561;28;20048;-77
2022/03/24 00:55:44;;;;;;;35.35;18.42;;;;;;;;;;5028667;28;20538;-77
2022/03/24 00:58:10;;;;;;;32.78;17.55;;;;;;;;;;5011109;28;20260;-77
2022/03/24 01:00:38;;;;;;;28.02;15.75;;;;;;;;;;5011578;28;20041;-77
2022/03/24 01:03:08;;;;;;;39.85;20.67;;;;;;;;;;5029445;28;20073;-76
2022/03/24 01:05:37;;;;;;;43.03;20.58;;;;;;;;;;5011380;28;20045;-76
2022/03/24 01:08:05;;;;;;;43.17;21.63;;;;;;;;;;5010917;28;20111;-77
2022/03/24 01:10:32;;;;;;;41.72;21.75;;;;;;;;;;5010916;28;20085;-77
2022/03/24 01:12:59;;;;;;;44.45;21.63;;;;;;;;;;5011461;28;20045;-77
2022/03/24 01:15:26;;;;;;;37.05;19.58;;;;;;;;;;5029422;28;20116;-77
2022/03/24 01:17:53;;;;;;;33.92;18.63;;;;;;;;;;4994869;28;20049;-77
2022/03/24 01:20:19;;;;;;;44.63;21.67;;;;;;;;;;5029118;28;20045;-76
2022/03/24 01:22:45;;;;;;;44.88;21.73;;;;;;;;;;4994798;28;20033;-76
2022/03/24 01:25:11;;;;;;;46.97;21.52;;;;;;;;;;5011029;28;20059;-76
2022/03/24 01:27:41;;;;;;;40.85;20.73;;;;;;;;;;5010724;28;20049;-76
2022/03/24 01:30:11;;;;;;;38.28;20.23;;;;;;;;;;5011307;28;20045;-77
2022/03/24 01:32:37;;;;;;;37.90;20.90;;;;;;;;;;4994445;28;20041;-77
2022/03/24 01:35:07;;;;;;;42.03;19.05;;;;;;;;;;5028618;28;20038;-77
2022/03/24 01:37:34;;;;;;;41.88;21.85;;;;;;;;;;5010434;28;20041;-77
2022/03/24 01:40:00;;;;;;;40.83;22.10;;;;;;;;;;5009047;28;20064;-77
2022/03/24 01:42:26;;;;;;;43.30;22.23;;;;;;;;;;5010752;28;20056;-75
2022/03/24 01:44:53;;;;;;;40.40;22.52;;;;;;;;;;5010960;28;20109;-75
2022/03/24 01:47:20;;;;;;;46.72;21.52;;;;;;;;;;4993800;28;20037;-75
2022/03/24 01:49:47;;;;;;;43.15;21.48;;;;;;;;;;5010458;28;20110;-77
2022/03/24 01:52:14;;;;;;;42.20;21.83;;;;;;;;;;5021036;28;20045;-77
2022/03/24 01:54:41;;;;;;;44.25;21.38;;;;;;;;;;5010375;28;20084;-74
2022/03/24 01:57:09;;;;;;;36.05;19.83;;;;;;;;;;5028232;28;20037;-75
2022/03/24 01:59:39;;;;;;;38.50;20.15;;;;;;;;;;5028178;28;20036;-77
2022/03/24 02:02:06;;;;;;;34.60;16.70;;;;;;;;;;4994442;28;20497;-77
2022/03/24 02:04:35;;;;;;;42.70;21.50;;;;;;;;;;5027947;28;20048;-74
2022/03/24 02:07:05;;;;;;;51.40;21.55;;;;;;;;;;5028107;28;20062;-75
2022/03/24 02:09:32;;;;;;;35.05;18.67;;;;;;;;;;5009846;28;20176;-74
2022/03/24 02:11:58;;;;;;;39.38;20.63;;;;;;;;;;4994315;28;20089;-74
2022/03/24 02:14:24;;;;;;;40.42;19.90;;;;;;;;;;5010228;28;20049;-75
2022/03/24 02:16:50;;;;;;;39.53;21.25;;;;;;;;;;5009791;28;20060;-75
2022/03/24 02:19:23;;;;;;;42.85;21.13;;;;;;;;;;4993658;28;20455;-74
2022/03/24 02:21:50;;;;;;;38.17;19.70;;;;;;;;;;5027431;28;20033;-74
2022/03/24 02:24:18;;;;;;;41.28;20.58;;;;;;;;;;5010096;28;20041;-75
2022/03/24 02:26:45;;;;;;;37.10;18.40;;;;;;;;;;5009855;28;20050;-75
2022/03/24 02:29:12;;;;;;;32.00;17.38;;;;;;;;;;5027848;28;20033;-77
2022/03/24 02:31:39;;;;;;;43.17;20.98;;;;;;;;;;5009855;28;20182;-77
2022/03/24 02:36:55;;;;;;;37.13;19.15;;;;;;;;;;5010191;28;20391;-77
2022/03/24 02:39:22;;;;;;;36.22;17.88;;;;;;;;;;5027773;28;20038;-77
2022/03/24 02:41:49;;;;;;;48.85;22.77;;;;;;;;;;5027280;28;20037;-75
2022/03/24 02:44:17;;;;;;;43.25;22.48;;;;;;;;;;5027869;28;20406;-76
2022/03/24 02:46:43;;;;;;;39.88;20.23;;;;;;;;;;5028079;28;20038;-77
2022/03/24 02:49:10;;;;;;;38.03;19.63;;;;;;;;;;4993613;28;20043;-77
2022/03/24 02:51:36;;;;;;;41.63;20.35;;;;;;;;;;5009553;28;20045;-77
2022/03/24 02:54:04;;;;;;;39.35;19.00;;;;;;;;;;5027624;28;20486;-77
2022/03/24 02:56:30;;;;;;;39.63;19.05;;;;;;;;;;5009348;28;20049;-77
2022/03/24 02:58:57;;;;;;;39.08;18.92;;;;;;;;;;5008687;28;20045;-75
2022/03/24 03:01:27;;;;;;;39.63;20.67;;;;;;;;;;5006277;28;20434;-75
2022/03/24 03:03:53;;;;;;;47.22;22.23;;;;;;;;;;4992236;28;20073;-74
2022/03/24 03:06:20;;;;;;;43.05;21.52;;;;;;;;;;4993614;28;20497;-75
2022/03/24 03:08:49;;;;;;;48.60;22.60;;;;;;;;;;5009132;28;20049;-75
2022/03/24 03:11:16;;;;;;;41.33;20.92;;;;;;;;;;5009293;28;20048;-75
2022/03/24 03:13:43;;;;;;;48.83;24.13;;;;;;;;;;5026462;28;20353;-74
2022/03/24 03:16:09;;;;;;;37.20;20.25;;;;;;;;;;5026925;28;20044;-75
2022/03/24 03:18:35;;;;;;;49.22;23.60;;;;;;;;;;5009033;28;20045;-75
2022/03/24 03:21:02;;;;;;;50.10;24.27;;;;;;;;;;5027058;28;20037;-75
2022/03/24 03:23:28;;;;;;;46.08;25.02;;;;;;;;;;5009084;28;20045;-74
2022/03/24 03:25:56;;;;;;;46.65;23.65;;;;;;;;;;4992885;28;20029;-75
2022/03/24 03:28:22;;;;;;;55.50;26.33;;;;;;;;;;5009330;28;20506;-74
2022/03/24 03:30:48;;;;;;;45.45;23.05;;;;;;;;;;5008939;28;20041;-74
2022/03/24 03:33:15;;;;;;;34.13;18.92;;;;;;;;;;4993054;28;20084;-74
2022/03/24 03:35:43;;;;;;;35.75;17.92;;;;;;;;;;5026680;28;20113;-74
2022/03/24 03:38:10;;;;;;;38.03;19.73;;;;;;;;;;5009212;28;20053;-74
2022/03/24 03:40:37;;;;;;;39.35;19.58;;;;;;;;;;5009162;28;20041;-74
2022/03/24 03:43:03;;;;;;;50.50;25.08;;;;;;;;;;4992988;28;20502;-74
2022/03/24 03:45:29;;;;;;;43.92;21.17;;;;;;;;;;5026441;28;20044;-75
2022/03/24 03:47:55;;;;;;;39.95;19.92;;;;;;;;;;4992762;28;20049;-75
2022/03/24 03:50:21;;;;;;;45.03;22.77;;;;;;;;;;4992682;28;20041;-74
2022/03/24 03:52:47;;;;;;;44.63;21.23;;;;;;;;;;5026468;28;20048;-75
2022/03/24 03:55:13;;;;;;;37.50;19.60;;;;;;;;;;4976701;28;20505;-75
2022/03/24 03:57:40;;;;;;;53.03;25.67;;;;;;;;;;5025849;28;20174;-75
2022/03/24 04:02:52;;;;;;;49.15;26.08;;;;;;;;;;5008694;28;20038;-75
2022/03/24 04:05:24;;;;;;;57.25;29.48;;;;;;;;;;5008522;28;20389;-75
2022/03/24 04:07:51;;;;;;;57.05;28.40;;;;;;;;;;4991957;28;20194;-74
2022/03/24 04:10:17;;;;;;;59.70;28.70;;;;;;;;;;5009044;28;20049;-75
2022/03/24 04:12:43;;;;;;;54.10;25.90;;;;;;;;;;5029652;28;20375;-75
2022/03/24 04:15:10;;;;;;;48.42;25.23;;;;;;;;;;4995957;28;20048;-75
2022/03/24 04:17:37;;;;;;;56.63;27.67;;;;;;;;;;5011481;28;20041;-75
2022/03/24 04:20:04;;;;;;;61.67;29.55;;;;;;;;;;5011842;28;20046;-75
2022/03/24 04:22:30;;;;;;;49.05;26.70;;;;;;;;;;5011802;28;20160;-74
2022/03/24 04:24:56;;;;;;;59.45;28.95;;;;;;;;;;5011857;28;20045;-74
2022/03/24 04:27:23;;;;;;;57.20;28.33;;;;;;;;;;5029672;28;20041;-74
2022/03/24 04:29:49;;;;;;;59.25;29.60;;;;;;;;;;5011826;28;20039;-74
2022/03/24 04:32:15;;;;;;;54.00;26.90;;;;;;;;;;5011749;28;20041;-74
2022/03/24 04:34:41;;;;;;;52.40;25.38;;;;;;;;;;4995395;28;20080;-74
2022/03/24 04:37:07;;;;;;;47.28;22.98;;;;;;;;;;4995583;28;20033;-74
2022/03/24 04:39:33;;;;;;;45.92;24.10;;;;;;;;;;5029045;28;20105;-74
2022/03/24 04:41:59;;;;;;;42.42;22.48;;;;;;;;;;5029393;28;20030;-74
2022/03/24 04:44:25;;;;;;;45.92;23.42;;;;;;;;;;5029370;28;20065;-74
2022/03/24 04:46:52;;;;;;;41.20;23.13;;;;;;;;;;5011451;28;20037;-74
2022/03/24 04:49:18;;;;;;;44.88;23.67;;;;;;;;;;5012100;28;20038;-75
2022/03/24 04:51:44;;;;;;;55.50;28.70;;;;;;;;;;5021825;28;20056;-74
2022/03/24 04:54:10;;;;;;;58.60;30.13;;;;;;;;;;5029293;28;20037;-75
2022/03/24 04:56:37;;;;;;;54.30;26.92;;;;;;;;;;5028398;28;20509;-75
2022/03/24 04:59:03;;;;;;;56.30;27.52;;;;;;;;;;5028636;28;20595;-74
2022/03/24 05:01:29;;;;;;;62.05;31.88;;;;;;;;;;5006791;28;20037;-74
2022/03/24 05:03:55;;;;;;;60.45;29.50;;;;;;;;;;5007956;28;20109;-75
2022/03/24 05:06:21;;;;;;;60.40;31.75;;;;;;;;;;5010443;28;20045;-75
2022/03/24 05:08:47;;;;;;;52.97;28.02;;;;;;;;;;5028241;28;20461;-75
2022/03/24 05:11:13;;;;;;;50.38;27.63;;;;;;;;;;5010957;28;20041;-75
2022/03/24 05:13:39;;;;;;;64.35;30.75;;;;;;;;;;4994838;28;20367;-75
2022/03/24 05:16:05;;;;;;;51.47;26.45;;;;;;;;;;5028941;28;20042;-74
2022/03/24 05:18:32;;;;;;;55.45;28.83;;;;;;;;;;5010904;28;20054;-75
2022/03/24 05:20:58;;;;;;;51.40;27.85;;;;;;;;;;5010966;28;20080;-74
2022/03/24 05:23:24;;;;;;;49.25;25.88;;;;;;;;;;4993465;28;20583;-74
2022/03/24 05:25:50;;;;;;;61.95;31.52;;;;;;;;;;4994680;28;20513;-75
2022/03/24 05:28:16;;;;;;;64.13;32.25;;;;;;;;;;4995078;28;20048;-75
2022/03/24 05:30:43;;;;;;;56.20;29.85;;;;;;;;;;5010585;28;20150;-75
2022/03/24 05:33:09;;;;;;;58.33;29.70;;;;;;;;;;4994841;28;20084;-75
2022/03/24 05:35:35;;;;;;;66.93;33.58;;;;;;;;;;5028172;28;20045;-75
2022/03/24 05:38:05;;;;;;;62.60;32.20;;;;;;;;;;5010869;28;20561;-74
2022/03/24 05:40:32;;;;;;;65.57;33.03;;;;;;;;;;5010377;28;20043;-77
2022/03/24 05:42:58;;;;;;;66.32;34.20;;;;;;;;;;5010854;28;20055;-77
2022/03/24 05:45:24;;;;;;;71.43;35.05;;;;;;;;;;5026054;28;20041;-77
2022/03/24 05:47:50;;;;;;;65.15;33.40;;;;;;;;;;5010512;28;20048;-74
2022/03/24 05:50:17;;;;;;;67.85;33.95;;;;;;;;;;5011000;28;20048;-75
2022/03/24 05:52:45;;;;;;;56.95;29.23;;;;;;;;;;5021309;28;20041;-75
2022/03/24 05:55:11;;;;;;;56.53;29.25;;;;;;;;;;5010364;28;20052;-75
2022/03/24 05:57:41;;;;;;;61.95;30.02;;;;;;;;;;4993934;28;20041;-75
2022/03/24 06:00:07;;;;;;;47.33;27.15;;;;;;;;;;4995335;28;20512;-75
2022/03/24 06:02:34;;;;;;;54.33;29.27;;;;;;;;;;5010245;28;20091;-75
2022/03/24 06:05:00;;;;;;;54.55;28.75;;;;;;;;;;5026017;28;20040;-75
2022/03/24 06:07:26;;;;;;;59.72;33.38;;;;;;;;;;5027633;28;20486;-75
2022/03/24 06:09:52;;;;;;;60.10;33.13;;;;;;;;;;4993567;28;20478;-75
2022/03/24 06:12:19;;;;;;;62.45;35.08;;;;;;;;;;5007816;28;20052;-75
2022/03/24 06:14:45;;;;;;;63.40;35.42;;;;;;;;;;5028027;28;20132;-74
2022/03/24 06:17:11;;;;;;;62.03;35.42;;;;;;;;;;5010191;28;20061;-75
2022/03/24 06:19:37;;;;;;;64.90;37.97;;;;;;;;;;5027678;28;20049;-75
2022/03/24 06:22:04;;;;;;;59.97;34.80;;;;;;;;;;5010174;28;20117;-75
2022/03/24 06:24:34;;;;;;;55.58;33.38;;;;;;;;;;5008129;28;20402;-75
2022/03/24 06:27:01;;;;;;;60.15;34.92;;;;;;;;;;5027832;28;20543;-75
2022/03/24 06:29:27;;;;;;;60.33;34.50;;;;;;;;;;5010264;28;20098;-75
2022/03/24 06:31:53;;;;;;;68.55;37.83;;;;;;;;;;5027145;28;20038;-75
2022/03/24 06:34:19;;;;;;;68.63;39.10;;;;;;;;;;5009505;28;20033;-77
2022/03/24 06:36:45;;;;;;;66.25;38.65;;;;;;;;;;5009519;28;20037;-77
2022/03/24 06:39:11;;;;;;;64.70;39.88;;;;;;;;;;5010286;28;20482;-77
2022/03/24 06:41:37;;;;;;;69.03;40.80;;;;;;;;;;5009827;28;20085;-77
2022/03/24 06:44:06;;;;;;;57.85;38.42;;;;;;;;;;5027834;28;20482;-77
2022/03/24 06:46:33;;;;;;;66.03;41.22;;;;;;;;;;5009800;28;20138;-77
2022/03/24 06:49:00;;;;;;;63.63;39.28;;;;;;;;;;5009820;28;20120;-77
2022/03/24 06:51:26;;;;;;;61.53;38.55;;;;;;;;;;5009323;28;20132;-78
2022/03/24 06:53:52;;;;;;;62.78;39.72;;;;;;;;;;4993574;28;20034;-77
2022/03/24 06:56:18;;;;;;;60.22;39.88;;;;;;;;;;5009676;28;20044;-77
2022/03/24 06:58:44;;;;;;;65.85;40.92;;;;;;;;;;5027291;28;20080;-77
2022/03/24 07:01:11;;;;;;;62.38;40.40;;;;;;;;;;5027614;28;20042;-77
2022/03/24 07:03:37;;;;;;;61.10;40.38;;;;;;;;;;5027207;28;20163;-77
2022/03/24 07:06:04;;;;;;;63.38;42.78;;;;;;;;;;5010223;28;20041;-77
2022/03/24 07:08:30;;;;;;;59.63;41.10;;;;;;;;;;4993132;28;20053;-77
2022/03/24 07:10:56;;;;;;;62.47;42.25;;;;;;;;;;5009956;28;20517;-78
2022/03/24 07:13:23;;;;;;;61.97;42.53;;;;;;;;;;5009956;28;20072;-77
2022/03/24 07:15:50;;;;;;;64.10;41.53;;;;;;;;;;5027074;28;20068;-77
2022/03/24 07:18:16;;;;;;;62.40;41.42;;;;;;;;;;5008879;28;20106;-77
2022/03/24 07:20:42;;;;;;;59.88;42.08;;;;;;;;;;5009499;28;20436;-78
2022/03/24 07:23:09;;;;;;;59.33;42.63;;;;;;;;;;5009244;28;20041;-78
2022/03/24 07:25:42;;;;;;;63.65;43.28;;;;;;;;;;5008995;28;20055;-78
2022/03/24 07:28:10;;;;;;;61.53;42.65;;;;;;;;;;4992979;28;20037;-78
2022/03/24 07:30:37;;;;;;;57.33;40.95;;;;;;;;;;5026797;28;20068;-78
2022/03/24 07:33:03;;;;;;;59.22;41.20;;;;;;;;;;5009583;28;20046;-78
2022/03/24 07:35:31;;;;;;;57.60;39.78;;;;;;;;;;5009501;28;20050;-78
2022/03/24 07:37:58;;;;;;;57.15;40.50;;;;;;;;;;4992959;28;20037;-78
2022/03/24 07:40:24;;;;;;;55.20;39.63;;;;;;;;;;5009468;28;20053;-78
2022/03/24 07:42:52;;;;;;;52.28;40.28;;;;;;;;;;5027039;28;20080;-78
2022/03/24 07:45:18;;;;;;;54.55;39.03;;;;;;;;;;5010589;28;20037;-78
2022/03/24 07:48:11;;;;;;;55.60;40.13;;;;;;;;;;4998753;28;20048;-77
2022/03/24 07:50:38;;;;;;;54.38;38.92;;;;;;;;;;5029037;28;20076;-78
2022/03/24 07:53:09;;;;;;;53.97;39.10;;;;;;;;;;5016126;28;20045;-77
2022/03/24 07:55:38;;;;;;;55.42;38.10;;;;;;;;;;5015231;28;20128;-77
2022/03/24 07:58:04;;;;;;;50.15;39.42;;;;;;;;;;5015630;28;20048;-77
2022/03/24 08:00:31;;;;;;;51.17;39.05;;;;;;;;;;5015937;28;20128;-77
2022/03/24 08:02:57;;;;;;;51.45;38.05;;;;;;;;;;5015153;28;20072;-77
2022/03/24 08:05:23;;;;;;;54.05;40.15;;;;;;;;;;5015966;28;20053;-77
2022/03/24 08:07:50;;;;;;;54.17;38.80;;;;;;;;;;5032857;28;20057;-77
2022/03/24 08:10:16;;;;;;;52.78;39.03;;;;;;;;;;5015579;28;20045;-77
2022/03/24 08:12:42;;;;;;;56.35;41.10;;;;;;;;;;5015426;28;20041;-76
2022/03/24 08:15:09;;;;;;;56.15;40.88;;;;;;;;;;5013156;28;20033;-76
2022/03/24 08:17:35;;;;;;;52.40;39.22;;;;;;;;;;4999030;28;20049;-76
2022/03/24 08:20:01;;;;;;;51.67;39.60;;;;;;;;;;5015293;28;20037;-76
2022/03/24 08:22:27;;;;;;;53.78;40.22;;;;;;;;;;5033084;28;20042;-76
2022/03/24 08:24:53;;;;;;;56.35;39.22;;;;;;;;;;5012448;28;20102;-77
2022/03/24 08:27:19;;;;;;;53.17;39.53;;;;;;;;;;4999017;28;20052;-77
2022/03/24 08:29:45;;;;;;;53.88;38.55;;;;;;;;;;5014942;28;20192;-77
2022/03/24 08:32:12;;;;;;;49.65;36.40;;;;;;;;;;5015439;28;20545;-77
2022/03/24 08:34:39;;;;;;;53.35;35.70;;;;;;;;;;5015076;28;20089;-77
2022/03/24 08:37:05;;;;;;;48.40;34.47;;;;;;;;;;5015200;28;20089;-77
2022/03/24 08:39:32;;;;;;;46.60;35.80;;;;;;;;;;5015280;28;20042;-77
2022/03/24 08:41:58;;;;;;;44.92;35.13;;;;;;;;;;5015181;28;20052;-77
2022/03/24 08:44:24;;;;;;;51.03;35.50;;;;;;;;;;5032926;28;20053;-76
2022/03/24 08:46:50;;;;;;;43.83;32.83;;;;;;;;;;5015311;28;20563;-77
2022/03/24 08:49:16;;;;;;;44.45;32.75;;;;;;;;;;5033073;28;20034;-76
2022/03/24 08:51:42;;;;;;;40.80;29.08;;;;;;;;;;5032489;28;20044;-77
2022/03/24 08:54:08;;;;;;;40.17;30.08;;;;;;;;;;5015166;28;20559;-76
2022/03/24 08:56:35;;;;;;;43.53;30.80;;;;;;;;;;5014159;28;20037;-76
2022/03/24 08:59:02;;;;;;;39.95;29.70;;;;;;;;;;4995446;28;20048;-78
2022/03/24 09:01:29;;;;;;;42.08;29.30;;;;;;;;;;5009390;28;20049;-78
2022/03/24 09:03:55;;;;;;;42.85;32.28;;;;;;;;;;4994536;28;20064;-78
2022/03/24 09:06:22;;;;;;;39.70;31.02;;;;;;;;;;5011111;28;20041;-78
2022/03/24 09:08:48;;;;;;;39.90;30.95;;;;;;;;;;5028503;28;20065;-78
2022/03/24 09:11:14;;;;;;;38.28;31.02;;;;;;;;;;5011491;28;20057;-76
2022/03/24 09:13:40;;;;;;;40.33;30.80;;;;;;;;;;5011335;28;20487;-77
2022/03/24 09:16:07;;;;;;;38.17;29.33;;;;;;;;;;4995511;28;20132;-76
2022/03/24 09:18:33;;;;;;;38.80;29.13;;;;;;;;;;5028920;28;20045;-76
2022/03/24 09:20:59;;;;;;;39.60;30.40;;;;;;;;;;5029217;28;20040;-76
2022/03/24 09:23:27;;;;;;;40.95;31.25;;;;;;;;;;5011383;28;20394;-76
2022/03/24 09:25:54;;;;;;;38.53;30.83;;;;;;;;;;4995194;28;20542;-76
2022/03/24 09:28:22;;;;;;;36.33;29.27;;;;;;;;;;4995232;28;20041;-76
2022/03/24 09:30:50;;;;;;;36.90;30.55;;;;;;;;;;4994826;28;20136;-76
2022/03/24 09:33:16;;;;;;;35.55;28.50;;;;;;;;;;5011531;28;20399;-76
2022/03/24 09:35:42;;;;;;;35.15;29.50;;;;;;;;;;5010698;28;20041;-76
2022/03/24 09:38:09;;;;;;;36.33;29.15;;;;;;;;;;4978884;28;20486;-76
2022/03/24 09:40:35;;;;;;;35.30;28.98;;;;;;;;;;5011187;28;20076;-76
2022/03/24 09:43:02;;;;;;;40.78;29.77;;;;;;;;;;5029355;28;20034;-76
2022/03/24 09:45:28;;;;;;;36.70;29.77;;;;;;;;;;5011012;28;20378;-76
2022/03/24 09:47:54;;;;;;;37.08;29.95;;;;;;;;;;5011317;28;20049;-76
2022/03/24 09:50:22;;;;;;;33.30;28.83;;;;;;;;;;5010868;28;20045;-76
2022/03/24 09:52:49;;;;;;;37.95;30.38;;;;;;;;;;5028733;28;20048;-76
2022/03/24 09:55:17;;;;;;;32.95;29.35;;;;;;;;;;4994237;28;20417;-76
2022/03/24 09:57:44;;;;;;;38.83;28.63;;;;;;;;;;5011029;28;20101;-76
2022/03/24 10:00:10;;;;;;;37.13;28.65;;;;;;;;;;4994632;28;20045;-76
2022/03/24 10:02:36;;;;;;;36.88;28.90;;;;;;;;;;5010793;28;20042;-76
2022/03/24 10:05:04;;;;;;;35.42;27.58;;;;;;;;;;5010585;28;20081;-76
2022/03/24 10:07:35;;;;;;;35.25;28.00;;;;;;;;;;5028647;28;20053;-76
2022/03/24 10:10:02;;;;;;;35.90;27.80;;;;;;;;;;5010309;28;20049;-76
2022/03/24 10:12:30;;;;;;;33.83;27.48;;;;;;;;;;5010681;28;20045;-76
2022/03/24 10:15:07;;;;;;;30.92;26.08;;;;;;;;;;5010685;28;20114;-76
2022/03/24 10:17:34;;;;;;;30.90;25.75;;;;;;;;;;5028777;28;20471;-76
2022/03/24 10:20:03;;;;;;;31.08;24.88;;;;;;;;;;5010011;28;20037;-76
2022/03/24 10:22:29;;;;;;;30.90;23.50;;;;;;;;;;5010159;28;20088;-76
2022/03/24 10:24:56;;;;;;;39.20;27.70;;;;;;;;;;5009963;28;20034;-76
2022/03/24 10:27:23;;;;;;;33.78;24.52;;;;;;;;;;5027951;28;20038;-76
2022/03/24 10:29:54;;;;;;;32.40;25.67;;;;;;;;;;4993796;28;20052;-76
2022/03/24 10:32:20;;;;;;;31.15;23.83;;;;;;;;;;5010710;28;20424;-76
2022/03/24 10:34:48;;;;;;;36.95;25.63;;;;;;;;;;5010102;28;20582;-76
2022/03/24 10:37:17;;;;;;;34.95;25.50;;;;;;;;;;5028189;28;20049;-76
2022/03/24 10:40:03;;;;;;;31.35;26.52;;;;;;;;;;5009639;28;20076;-76
2022/03/24 10:42:30;;;;;;;30.88;25.60;;;;;;;;;;5009499;28;20041;-75
2022/03/24 10:45:11;;;;;;;28.90;23.17;;;;;;;;;;5010225;28;20033;-76
2022/03/24 10:47:43;;;;;;;30.52;25.27;;;;;;;;;;5010495;28;20041;-75
2022/03/24 10:50:21;;;;;;;34.20;24.80;;;;;;;;;;5010297;28;20037;-76
2022/03/24 10:52:48;;;;;;;28.20;23.73;;;;;;;;;;5010140;28;20502;-76
2022/03/24 10:55:19;;;;;;;35.17;22.27;;;;;;;;;;5027809;28;20401;-76
2022/03/24 10:57:46;;;;;;;29.85;21.75;;;;;;;;;;5009858;28;20069;-76
2022/03/24 11:00:12;;;;;;;28.10;21.70;;;;;;;;;;5027787;28;20386;-76
2022/03/24 11:02:40;;;;;;;30.30;23.02;;;;;;;;;;5010345;28;20501;-75
2022/03/24 11:05:12;;;;;;;31.67;21.63;;;;;;;;;;5009954;28;20042;-75
2022/03/24 11:07:38;;;;;;;28.17;20.92;;;;;;;;;;5027650;28;20061;-75
2022/03/24 11:10:15;;;;;;;27.27;19.45;;;;;;;;;;5027421;28;20053;-75
2022/03/24 11:12:43;;;;;;;29.83;20.05;;;;;;;;;;5008573;28;20042;-75
2022/03/24 11:15:10;;;;;;;24.52;18.05;;;;;;;;;;5009811;28;20359;-75
2022/03/24 11:17:37;;;;;;;30.48;17.45;;;;;;;;;;4993706;28;20068;-75
2022/03/24 11:20:16;;;;;;;24.95;16.88;;;;;;;;;;4992458;28;20087;-76
2022/03/24 11:23:01;;;;;;;26.65;17.08;;;;;;;;;;5008959;28;20500;-77
2022/03/24 11:25:27;;;;;;;;;;;;;;;;;;5010293;28;20482;-75
2022/03/24 11:27:54;;;;;;;27.88;19.48;;;;;;;;;;5009458;28;20025;-76
2022/03/24 11:30:20;;;;;;;27.70;19.38;;;;;;;;;;5009574;28;20034;-75
2022/03/24 11:32:49;;;;;;;24.30;17.02;;;;;;;;;;4993201;28;20053;-75
2022/03/24 11:35:16;;;;;;;27.85;18.23;;;;;;;;;;5027204;28;20341;-76
2022/03/24 11:37:42;;;;;;;23.60;17.73;;;;;;;;;;5026491;28;20558;-75
2022/03/24 11:40:17;;;;;;;28.73;18.75;;;;;;;;;;4993447;28;20037;-75
2022/03/24 11:42:54;;;;;;;24.23;19.33;;;;;;;;;;5009086;28;20038;-75
2022/03/24 11:45:39;;;;;;;24.67;19.27;;;;;;;;;;5008629;28;20034;-77
2022/03/24 11:48:10;;;;;;;24.42;17.77;;;;;;;;;;5024332;28;20521;-77
2022/03/24 11:50:36;;;;;;;28.17;18.77;;;;;;;;;;5009258;28;20555;-78
2022/03/24 11:53:08;;;;;;;25.65;19.30;;;;;;;;;;4992843;28;20565;-77
2022/03/24 11:55:37;;;;;;;30.85;21.17;;;;;;;;;;5026673;28;20064;-76
2022/03/24 11:58:04;;;;;;;28.52;20.75;;;;;;;;;;5009217;28;20049;-77
2022/03/24 12:00:30;;;;;;;28.35;20.55;;;;;;;;;;5027066;28;20041;-74
2022/03/24 12:03:00;;;;;;;31.23;21.38;;;;;;;;;;5026509;28;20120;-75
2022/03/24 12:05:45;;;;;;;32.58;21.88;;;;;;;;;;5009033;28;20045;-77
2022/03/24 12:08:11;;;;;;;31.25;20.95;;;;;;;;;;4995284;28;20062;-77
2022/03/24 12:10:37;;;;;;;29.58;22.55;;;;;;;;;;4970091;28;20103;-77
2022/03/24 12:13:19;;;;;;;28.02;20.40;;;;;;;;;;4984886;28;20050;-77
2022/03/24 12:15:45;;;;;;;32.33;21.98;;;;;;;;;;4985784;28;20077;-76
2022/03/24 12:18:18;;;;;;;31.67;22.00;;;;;;;;;;4987508;28;20045;-76
2022/03/24 12:20:45;;;;;;;27.35;19.88;;;;;;;;;;4985944;28;20085;-76
2022/03/24 12:23:12;;;;;;;27.75;20.08;;;;;;;;;;4985621;28;20311;-77
2022/03/24 12:25:38;;;;;;;32.47;21.20;;;;;;;;;;4985300;28;20046;-77
2022/03/24 12:28:09;;;;;;;28.00;21.30;;;;;;;;;;4985740;28;20559;-77
2022/03/24 12:30:42;;;;;;;30.08;21.35;;;;;;;;;;4985774;28;20077;-77
2022/03/24 12:33:09;;;;;;;28.63;21.05;;;;;;;;;;4989042;28;20053;-76
2022/03/24 12:35:55;;;;;;;29.73;20.27;;;;;;;;;;4973299;28;20492;-77
2022/03/24 12:38:28;;;;;;;31.25;18.15;;;;;;;;;;4988466;28;20519;-77
2022/03/24 12:41:19;;;;;;;27.77;18.38;;;;;;;;;;4972185;28;20077;-77
2022/03/24 12:43:55;;;;;;;31.67;20.63;;;;;;;;;;4983199;28;20488;-77
2022/03/24 12:46:21;;;;;;;28.23;20.40;;;;;;;;;;4989514;28;20486;-77
2022/03/24 12:48:48;;;;;;;29.15;19.67;;;;;;;;;;4972811;28;20050;-74
2022/03/24 12:51:25;;;;;;;30.63;19.30;;;;;;;;;;4988814;28;20045;-75
2022/03/24 12:53:52;;;;;;;26.98;19.08;;;;;;;;;;4995439;28;20046;-75
2022/03/24 12:56:23;;;;;;;31.45;19.95;;;;;;;;;;4989248;28;20518;-74
2022/03/24 12:58:53;;;;;;;27.65;18.02;;;;;;;;;;4988501;28;20079;-75
2022/03/24 13:01:20;;;;;;;30.13;18.35;;;;;;;;;;4989134;28;20482;-75
2022/03/24 13:03:53;;;;;;;30.27;18.15;;;;;;;;;;4989999;28;20061;-76
2022/03/24 13:06:20;;;;;;;28.35;19.75;;;;;;;;;;4988659;28;20526;-76
2022/03/24 13:09:06;;;;;;;25.25;17.38;;;;;;;;;;5037622;28;20573;-77
2022/03/24 13:11:48;;;;;;;30.88;20.60;;;;;;;;;;5088789;28;20040;-77
2022/03/24 13:14:14;;;;;;;31.98;19.55;;;;;;;;;;5086358;28;20117;-77
2022/03/24 13:16:40;;;;;;;31.70;18.95;;;;;;;;;;5086190;28;20457;-76
2022/03/24 13:19:06;;;;;;;31.48;20.15;;;;;;;;;;5087374;28;20480;-77
2022/03/24 13:21:32;;;;;;;35.17;19.13;;;;;;;;;;5086282;28;20190;-77
2022/03/24 13:23:58;;;;;;;29.70;18.67;;;;;;;;;;5069458;28;20028;-76
2022/03/24 13:26:24;;;;;;;30.35;18.50;;;;;;;;;;5089447;28;20036;-76
2022/03/24 13:28:57;;;;;;;27.98;18.45;;;;;;;;;;5073016;28;20040;-75
2022/03/24 13:31:29;;;;;;;29.70;19.88;;;;;;;;;;5082380;28;20107;-77
2022/03/24 13:33:55;;;;;;;31.15;19.05;;;;;;;;;;5088379;28;20119;-74
2022/03/24 13:36:22;;;;;;;26.70;17.90;;;;;;;;;;5086396;28;20040;-75
2022/03/24 13:38:48;;;;;;;30.27;17.67;;;;;;;;;;5085947;28;20050;-75
2022/03/24 13:41:14;;;;;;;29.10;18.33;;;;;;;;;;5070379;28;21332;-77
2022/03/24 13:43:40;;;;;;;31.90;18.95;;;;;;;;;;5089771;28;20512;-75
2022/03/24 13:46:08;;;;;;;29.05;18.02;;;;;;;;;;5088500;28;20043;-75
2022/03/24 13:48:36;;;;;;;34.20;19.13;;;;;;;;;;5086040;28;20048;-74
2022/03/24 13:51:12;;;;;;;31.08;18.45;;;;;;;;;;5087959;28;20036;-74
2022/03/24 13:53:38;;;;;;;26.98;16.83;;;;;;;;;;5090479;28;20044;-74
2022/03/24 13:56:04;;;;;;;34.17;19.70;;;;;;;;;;5089487;28;20036;-75
2022/03/24 13:58:30;;;;;;;32.72;20.38;;;;;;;;;;5090080;28;20052;-74
2022/03/24 14:01:07;;;;;;;32.08;19.42;;;;;;;;;;5070809;28;20028;-74
2022/03/24 14:03:38;;;;;;;33.33;19.58;;;;;;;;;;5088162;28;20119;-74
2022/03/24 14:06:11;;;;;;;36.35;19.98;;;;;;;;;;5089407;28;20493;-74
2022/03/24 14:08:42;;;;;;;34.53;20.17;;;;;;;;;;5027793;28;20504;-74
2022/03/24 14:11:11;;;;;;;32.00;18.83;;;;;;;;;;4989362;28;20035;-72
2022/03/24 14:13:42;;;;;;;30.90;19.05;;;;;;;;;;4988089;28;20506;-74
2022/03/24 14:16:08;;;;;;;33.28;18.58;;;;;;;;;;4971608;28;20038;-75
2022/03/24 14:18:35;;;;;;;27.30;16.05;;;;;;;;;;4987811;28;20054;-75
2022/03/24 14:21:01;;;;;;;34.00;18.23;;;;;;;;;;4988769;28;20041;-75
2022/03/24 14:23:34;;;;;;;29.27;16.98;;;;;;;;;;4987553;28;20176;-77
2022/03/24 14:26:20;;;;;;;32.88;18.50;;;;;;;;;;4987425;28;20038;-77
2022/03/24 14:28:47;;;;;;;29.98;19.48;;;;;;;;;;4988501;28;20083;-78